createdAt,value
2019-02-26T00:03:35.248Z,102666.80
2019-02-26T00:08:41.165Z,102662.68
2019-02-26T00:13:48.621Z,102658.67
2019-02-26T00:18:56.231Z,102658.55
2019-02-26T00:24:05.043Z,102640.70
2019-02-26T00:29:12.025Z,102632.81
2019-02-26T00:34:18.703Z,102615.05
2019-02-26T00:39:25.109Z,102617.80
2019-02-26T00:44:32.721Z,102617.36
2019-02-26T00:49:39.145Z,102623.76
2019-02-26T00:54:44.973Z,102631.56
2019-02-26T00:59:50.939Z,102637.61
2019-02-26T01:04:56.532Z,102639.74
2019-02-26T01:10:02.320Z,102654.25
2019-02-26T01:15:22.829Z,102646.95
2019-02-26T01:20:30.237Z,102640.91
2019-02-26T01:25:38.273Z,102662.17
2019-02-26T01:30:43.359Z,102657.12
2019-02-26T01:35:50.300Z,102638.86
2019-02-26T01:40:56.673Z,102632.84
2019-02-26T01:46:02.768Z,102620.05
2019-02-26T01:51:08.850Z,102620.39
2019-02-26T01:56:14.557Z,102606.96
2019-02-26T02:01:23.867Z,102620.61
2019-02-26T02:06:32.540Z,102616.30
2019-02-26T02:11:40.601Z,102605.11
2019-02-26T02:16:46.025Z,102618.08
2019-02-26T02:21:53.801Z,102610.06
2019-02-26T02:27:00.292Z,102613.28
2019-02-26T02:32:07.719Z,102613.03
2019-02-26T02:37:17.881Z,102598.33
2019-02-26T02:42:24.486Z,102608.27
2019-02-26T02:47:33.194Z,102595.84
2019-02-26T02:52:37.996Z,102593.56
2019-02-26T02:57:48.764Z,102604.23
2019-02-26T03:02:53.024Z,102632.45
2019-02-26T03:07:59.719Z,102637.52
2019-02-26T03:13:05.397Z,102627.47
2019-02-26T03:18:12.514Z,102626.25
2019-02-26T03:23:20.187Z,102625.30
2019-02-26T03:28:26.077Z,102602.08
2019-02-26T03:33:32.100Z,102590.22
2019-02-26T03:38:37.659Z,102580.64
2019-02-26T03:43:43.431Z,102577.70
2019-02-26T03:48:49.446Z,102579.00
2019-02-26T03:53:55.065Z,102578.30
2019-02-26T03:59:04.005Z,102585.95
2019-02-26T04:04:08.417Z,102599.35
2019-02-26T04:09:16.534Z,102594.61
2019-02-26T04:14:22.907Z,102578.13
2019-02-26T04:19:28.993Z,102593.47
2019-02-26T04:24:38.106Z,102592.33
2019-02-26T04:29:46.909Z,102590.62
2019-02-26T04:34:56.942Z,102579.52
2019-02-26T04:40:11.048Z,102590.44
2019-02-26T04:45:35.373Z,102572.95
2019-02-26T04:50:44.603Z,102576.61
2019-02-26T04:55:50.044Z,102556.64
2019-02-26T05:00:56.058Z,102562.55
2019-02-26T05:06:07.369Z,102560.70
2019-02-26T05:11:14.723Z,102551.30
2019-02-26T05:16:18.217Z,102560.25
2019-02-26T05:21:27.057Z,102569.05
2019-02-26T05:26:32.777Z,102576.02
2019-02-26T05:31:40.242Z,102575.59
2019-02-26T05:36:46.385Z,102567.97
2019-02-26T05:41:54.553Z,102562.03
2019-02-26T05:47:01.593Z,102551.03
2019-02-26T05:52:07.350Z,102542.52
2019-02-26T05:57:25.964Z,102547.43
2019-02-26T06:02:24.424Z,102551.55
2019-02-26T06:07:35.529Z,102560.12
2019-02-26T06:12:41.479Z,102571.45
2019-02-26T06:17:48.245Z,102581.37
2019-02-26T06:22:54.321Z,102591.97
2019-02-26T06:28:04.488Z,102586.66
2019-02-26T06:33:09.740Z,102587.15
2019-02-26T06:38:16.159Z,102582.46
2019-02-26T06:43:21.720Z,102579.26
2019-02-26T06:48:29.635Z,102571.69
2019-02-26T06:53:35.352Z,102570.91
2019-02-26T06:58:43.251Z,102573.84
2019-02-26T07:03:50.230Z,102572.98
2019-02-26T07:08:55.780Z,102579.45
2019-02-26T07:14:03.646Z,102572.02
2019-02-26T07:19:11.540Z,102549.61
2019-02-26T07:24:18.112Z,102549.35
2019-02-26T07:29:24.069Z,102567.52
2019-02-26T07:34:30.402Z,102574.62
2019-02-26T07:39:36.247Z,102575.03
2019-02-26T07:44:42.297Z,102570.75
2019-02-26T07:49:49.168Z,102591.46
2019-02-26T07:54:55.376Z,102594.75
2019-02-26T08:00:02.289Z,102592.14
2019-02-26T08:05:11.026Z,102599.40
2019-02-26T08:10:19.543Z,102621.38
2019-02-26T08:15:27.857Z,102631.09
2019-02-26T08:20:35.660Z,102626.65
2019-02-26T08:25:42.201Z,102616.67
2019-02-26T08:30:49.911Z,102618.67
2019-02-26T08:35:57.625Z,102625.25
2019-02-26T08:41:04.329Z,102615.77
2019-02-26T08:46:12.208Z,102617.79
2019-02-26T08:51:21.521Z,102621.23
2019-02-26T08:56:28.192Z,102625.77
2019-02-26T09:01:33.826Z,102613.63
2019-02-26T09:06:41.724Z,102614.75
2019-02-26T09:11:47.716Z,102607.73
2019-02-26T09:16:54.962Z,102601.44
2019-02-26T09:22:01.452Z,102610.02
2019-02-26T09:27:07.695Z,102604.77
2019-02-26T09:32:16.068Z,102610.13
2019-02-26T09:37:21.847Z,102622.20
2019-02-26T09:42:30.031Z,102620.86
2019-02-26T09:47:35.943Z,102626.19
2019-02-26T09:52:41.666Z,102619.11
2019-02-26T09:57:49.197Z,102639.65
2019-02-26T10:02:55.027Z,102651.98
2019-02-26T10:08:04.793Z,102657.56
2019-02-26T10:13:08.146Z,102659.03
2019-02-26T10:18:13.765Z,102664.27
2019-02-26T10:23:21.771Z,102659.31
2019-02-26T10:28:27.687Z,102654.46
2019-02-26T10:33:37.789Z,102643.67
2019-02-26T10:38:43.031Z,102646.59
2019-02-26T10:43:48.834Z,102664.56
2019-02-26T10:48:55.098Z,102677.90
2019-02-26T10:54:05.079Z,102669.72
2019-02-26T10:59:13.145Z,102667.52
2019-02-26T11:04:19.963Z,102670.92
2019-02-26T11:09:29.270Z,102658.72
2019-02-26T11:14:36.057Z,102652.86
2019-02-26T11:19:41.924Z,102663.83
2019-02-26T11:24:48.523Z,102658.54
2019-02-26T11:29:56.968Z,102649.30
2019-02-26T11:35:02.834Z,102631.44
2019-02-26T11:40:13.556Z,102610.73
2019-02-26T11:45:24.080Z,102611.72
2019-02-26T11:50:29.732Z,102601.05
2019-02-26T11:55:37.481Z,102589.69
2019-02-26T12:00:47.638Z,102591.11
2019-02-26T12:05:54.180Z,102596.84
2019-02-26T12:11:03.801Z,102600.31
2019-02-26T12:16:09.399Z,102603.95
2019-02-26T12:21:14.986Z,102598.15
2019-02-26T12:26:22.197Z,102586.66
2019-02-26T12:31:31.789Z,102579.72
2019-02-26T12:36:38.126Z,102582.43
2019-02-26T12:41:45.309Z,102589.27
2019-02-26T12:46:53.627Z,102593.48
2019-02-26T12:51:59.949Z,102566.45
2019-02-26T12:57:06.615Z,102559.20
2019-02-26T13:02:16.720Z,102553.13
2019-02-26T13:07:20.972Z,102551.08
2019-02-26T13:12:29.666Z,102535.72
2019-02-26T13:17:34.895Z,102512.32
2019-02-26T13:22:45.788Z,102509.55
2019-02-26T13:27:51.013Z,102498.69
2019-02-26T13:33:00.737Z,102499.08
2019-02-26T13:38:05.737Z,102495.44
2019-02-26T13:43:11.548Z,102498.95
2019-02-26T13:48:20.185Z,102491.67
2019-02-26T13:53:25.967Z,102507.73
2019-02-26T13:58:32.328Z,102497.70
2019-02-26T14:03:39.872Z,102499.91
2019-02-26T14:08:46.344Z,102516.74
2019-02-26T14:13:52.838Z,102512.30
2019-02-26T14:18:58.634Z,102504.07
2019-02-26T14:24:04.786Z,102497.27
2019-02-26T14:29:10.702Z,102484.96
2019-02-26T14:34:16.316Z,102489.72
2019-02-26T14:39:23.655Z,102486.23
2019-02-26T14:44:30.856Z,102493.16
2019-02-26T14:49:37.844Z,102503.77
2019-02-26T14:54:44.657Z,102515.10
2019-02-26T14:59:50.811Z,102512.67
2019-02-26T15:04:58.108Z,102515.65
2019-02-26T15:10:07.748Z,102519.17
2019-02-26T15:15:16.480Z,102513.45
2019-02-26T15:20:23.911Z,102507.91
2019-02-26T15:25:33.736Z,102512.11
2019-02-26T15:30:40.073Z,102519.69
2019-02-26T15:35:47.227Z,102529.16
2019-02-26T15:40:54.847Z,102532.56
2019-02-26T15:46:01.952Z,102539.43
2019-02-26T15:51:14.346Z,102540.16
2019-02-26T15:56:15.856Z,102542.18
2019-02-26T16:01:23.909Z,102528.24
2019-02-26T16:06:30.490Z,102517.77
2019-02-26T16:11:37.874Z,102528.41
2019-02-26T16:16:44.575Z,102532.54
2019-02-26T16:21:50.264Z,102518.13
2019-02-26T16:26:56.585Z,102512.08
2019-02-26T16:32:04.999Z,102516.50
2019-02-26T16:37:13.733Z,102530.06
2019-02-26T16:42:19.805Z,102542.97
2019-02-26T16:47:26.414Z,102535.69
2019-02-26T16:52:34.678Z,102527.94
2019-02-26T16:57:40.876Z,102529.36
2019-02-26T17:02:48.573Z,102539.56
2019-02-26T17:07:56.136Z,102533.08
2019-02-26T17:13:05.918Z,102526.96
2019-02-26T17:18:12.586Z,102538.64
2019-02-26T17:23:18.282Z,102531.05
2019-02-26T17:28:24.113Z,102511.80
2019-02-26T17:33:30.010Z,102516.66
2019-02-26T17:38:35.785Z,102518.89
2019-02-26T17:43:41.561Z,102521.30
2019-02-26T17:48:47.622Z,102516.02
2019-02-26T17:53:53.183Z,102515.05
2019-02-26T17:59:00.022Z,102514.09
2019-02-26T18:04:07.179Z,102515.63
2019-02-26T18:09:13.086Z,102523.16
2019-02-26T18:14:19.065Z,102522.84
2019-02-26T18:19:25.070Z,102541.72
2019-02-26T18:24:30.933Z,102551.03
2019-02-26T18:29:38.518Z,102555.41
2019-02-26T18:34:47.028Z,102547.17
2019-02-26T18:39:54.712Z,102565.13
2019-02-26T18:45:01.286Z,102565.83
2019-02-26T18:50:10.201Z,102573.00
2019-02-26T18:55:19.266Z,102565.39
2019-02-26T19:00:28.343Z,102561.53
2019-02-26T19:05:33.975Z,102568.41
2019-02-26T19:10:39.831Z,102568.06
2019-02-26T19:15:47.549Z,102566.33
2019-02-26T19:20:52.763Z,102561.13
2019-02-26T19:25:58.348Z,102565.09
2019-02-26T19:31:04.195Z,102566.25
2019-02-26T19:36:13.065Z,102566.25
2019-02-26T19:41:18.191Z,102577.50
2019-02-26T19:46:24.122Z,102574.23
2019-02-26T19:51:30.167Z,102577.42
2019-02-26T19:56:36.164Z,102569.96
2019-02-26T20:01:43.350Z,102555.84
2019-02-26T20:06:49.620Z,102549.11
2019-02-26T20:11:56.838Z,102550.42
2019-02-26T20:17:13.675Z,102545.95
2019-02-26T20:22:11.643Z,102538.05
2019-02-26T20:27:21.671Z,102542.02
2019-02-26T20:32:28.795Z,102545.73
2019-02-26T20:37:37.130Z,102532.31
2019-02-26T20:42:43.079Z,102530.41
2019-02-26T20:47:50.357Z,102530.41
2019-02-26T20:52:57.290Z,102532.64
2019-02-26T20:58:02.939Z,102528.86
2019-02-26T21:03:08.768Z,102530.77
2019-02-26T21:08:15.140Z,102541.95
2019-02-26T21:13:21.052Z,102543.88
2019-02-26T21:18:30.317Z,102538.52
2019-02-26T21:23:34.000Z,102542.45
2019-02-26T21:28:41.422Z,102535.37
2019-02-26T21:33:47.153Z,102529.80
2019-02-26T21:38:53.529Z,102530.68
2019-02-26T21:43:59.680Z,102524.75
2019-02-26T21:49:07.541Z,102527.56
2019-02-26T21:54:12.532Z,102531.51
2019-02-26T21:59:18.128Z,102531.52
2019-02-26T22:04:25.060Z,102530.29
2019-02-26T22:09:30.667Z,102529.23
2019-02-26T22:14:37.446Z,102523.89
2019-02-26T22:19:44.308Z,102527.91
2019-02-26T22:24:50.225Z,102522.47
2019-02-26T22:29:55.798Z,102530.41
2019-02-26T22:35:03.288Z,102527.50
2019-02-26T22:40:11.611Z,102516.45
2019-02-26T22:45:17.656Z,102519.48
2019-02-26T22:50:24.863Z,102515.10
2019-02-26T22:55:32.131Z,102510.50
2019-02-26T23:00:54.350Z,102511.87
2019-02-26T23:06:03.735Z,102501.26
2019-02-26T23:11:12.043Z,102495.63
2019-02-26T23:16:19.117Z,102500.81
2019-02-26T23:21:25.361Z,102493.31
2019-02-26T23:26:32.451Z,102480.92
2019-02-26T23:31:38.542Z,102476.61
2019-02-26T23:36:44.627Z,102481.80
2019-02-26T23:41:50.736Z,102485.39
2019-02-26T23:46:56.610Z,102481.95
2019-02-26T23:52:03.503Z,102477.55
2019-02-26T23:57:09.511Z,102468.48
